Benton, California
Current Conditions -  °F | °C
As of 8:55 PM on Friday 31 Oct 2014 (Local Time) from KMMH Reporting Station
Scattered Clouds Scattered Clouds  
Wind Chill: 41°   Ceiling: Unl
Heat Index: 41°   Visibility: 10mi
Dew Point: 28°   Wind: 3mph
Humidity: 61%   Direction: 110°ESE
Pressure: 29.73"   Gusts: NA
Location:  37.82°N, 118.48°W
Report Text: KMMH 010355Z AUTO 11003KT 10SM SCT070 05/M02 A2973 RMK AO1
Loading
Personal Weather Stations






























Interactive Weather Map
Tropical Storm Tracking
New forecast layout! Learn more

10-Day Weather Forecast

Advertisements
Track Severe Weather on mobile